Time;durP1;ratioP1;P1;durP2;ratioP2;P2;SDS_P1;SDS_P2;PMS_P1;PMS_P2;Temp;Humidity;BMP_temperature;BMP_pressure;BME280_temperature;BME280_humidity;BME280_pressure;Samples;Min_cycle;Max_cycle;Signal;HPM_P1;HPM_P2
2023/01/26 00:01:55;;;;;;;24.90;13.85;;;;;;;-5.06;69.88;102405.72;1846202;78;21032;-49
2023/01/26 00:04:23;;;;;;;28.42;8.15;;;;;;;-5.04;69.65;102406.67;1846136;78;21076;-56
2023/01/26 00:06:52;;;;;;;16.45;6.62;;;;;;;-4.99;69.52;102400.59;1846099;78;21138;-57
2023/01/26 00:09:22;;;;;;;33.58;14.40;;;;;;;-4.97;69.00;102400.59;1846063;78;21139;-52
2023/01/26 00:11:50;;;;;;;18.05;9.90;;;;;;;-4.97;69.17;102408.30;1844659;78;21588;-54
2023/01/26 00:14:19;;;;;;;27.52;12.73;;;;;;;-4.96;69.14;102402.34;1846014;78;21092;-48
2023/01/26 00:16:47;;;;;;;47.95;17.40;;;;;;;-4.98;69.15;102408.71;1846202;78;21037;-45
2023/01/26 00:19:16;;;;;;;35.73;12.55;;;;;;;-5.03;69.32;102401.16;1846231;78;21068;-44
2023/01/26 00:21:45;;;;;;;32.17;13.40;;;;;;;-5.06;69.18;102408.29;1846241;78;21048;-44
2023/01/26 00:24:13;;;;;;;40.95;11.55;;;;;;;-5.08;69.15;102399.63;1846215;78;21166;-44
2023/01/26 00:26:42;;;;;;;46.35;14.15;;;;;;;-5.08;69.15;102399.63;1846257;78;21041;-45
2023/01/26 00:29:11;;;;;;;31.65;13.75;;;;;;;-5.10;69.26;102399.95;1847169;77;21916;-44
2023/01/26 00:31:39;;;;;;;32.48;12.50;;;;;;;-5.10;69.18;102402.52;1847752;77;21156;-45
2023/01/26 00:34:08;;;;;;;38.42;13.30;;;;;;;-5.12;69.07;102406.70;1845403;78;21772;-44
2023/01/26 00:36:36;;;;;;;35.05;14.50;;;;;;;-5.14;69.08;102400.61;1847212;78;21086;-45
2023/01/26 00:39:05;;;;;;;40.00;16.15;;;;;;;-5.14;69.06;102403.17;1847742;78;21124;-44
2023/01/26 00:44:22;;;;;;;20.95;9.68;;;;;;;-5.16;68.86;102394.51;1845618;78;21068;-47
2023/01/26 00:46:50;;;;;;;36.68;12.65;;;;;;;-5.16;68.86;102394.51;1840827;78;21137;-47
2023/01/26 00:49:19;;;;;;;34.83;16.42;;;;;;;-5.13;68.69;102401.06;1835679;78;21121;-45
2023/01/26 00:51:48;;;;;;;35.78;15.53;;;;;;;-5.14;68.51;102399.32;1854849;77;21110;-45
2023/01/26 00:54:16;;;;;;;36.50;13.85;;;;;;;-5.14;68.53;102399.32;1855024;77;21063;-46
2023/01/26 00:56:46;;;;;;;62.67;14.13;;;;;;;-5.18;68.49;102396.50;1847159;77;21164;-48
2023/01/26 00:59:15;;;;;;;30.10;13.68;;;;;;;-5.18;68.75;102396.50;1847346;77;21145;-44
2023/01/26 01:01:45;;;;;;;44.90;14.58;;;;;;;-5.21;68.56;102394.67;1847052;77;21152;-45
2023/01/26 01:04:15;;;;;;;37.95;17.60;;;;;;;-5.22;68.55;102389.03;1845322;78;21160;-47
2023/01/26 01:06:44;;;;;;;59.27;22.80;;;;;;;-5.26;68.55;102379.41;1847099;78;21540;-46
2023/01/26 01:09:13;;;;;;;46.13;16.82;;;;;;;-5.24;68.82;102383.27;1847727;78;21113;-43
2023/01/26 01:11:42;;;;;;;28.52;11.60;;;;;;;-5.26;68.94;102383.27;1855186;77;21570;-44
2023/01/26 01:14:12;;;;;;;50.28;16.40;;;;;;;-5.25;68.78;102388.90;1847693;78;21734;-46
2023/01/26 01:16:42;;;;;;;49.83;17.23;;;;;;;-5.28;68.69;102382.30;1845468;77;21513;-43
2023/01/26 01:19:16;;;;;;;37.73;11.63;;;;;;;-5.33;68.84;102379.89;1847183;77;21575;-43
2023/01/26 01:21:44;;;;;;;;;;;;;;;-5.39;68.86;102372.75;1850522;78;21043;-45
2023/01/26 01:24:13;;;;;;;20.00;8.75;;;;;;;-5.41;68.79;102374.36;1847227;77;20165;-45
2023/01/26 01:26:41;;;;;;;39.70;14.83;;;;;;;-5.48;68.76;102369.33;1845574;78;21144;-45
2023/01/26 01:29:13;;;;;;;8.78;4.80;;;;;;;-5.50;68.71;102370.91;1847120;77;21247;-44
2023/01/26 01:31:43;;;;;;;9.95;4.70;;;;;;;-5.49;68.62;102373.09;1847317;77;21125;-43
2023/01/26 01:34:11;;;;;;;32.85;13.05;;;;;;;-5.51;68.60;102375.58;1847431;77;21575;-44
2023/01/26 01:36:41;;;;;;;26.95;10.53;;;;;;;-5.54;68.61;102375.40;1836628;77;21631;-46
2023/01/26 01:39:09;;;;;;;24.82;8.58;;;;;;;-5.58;68.70;102380.30;1817946;79;21054;-45
2023/01/26 01:41:38;;;;;;;14.93;6.45;;;;;;;-5.60;68.70;102375.50;1817930;79;21102;-45
2023/01/26 01:44:24;;;;;;;41.18;12.45;;;;;;;-5.61;68.64;102374.59;1817806;79;21181;-45
2023/01/26 01:47:01;;;;;;;20.80;6.83;;;;;;;-5.66;68.62;102370.52;1819988;78;21067;-47
2023/01/26 01:49:33;;;;;;;28.67;7.45;;;;;;;-5.76;68.68;102374.66;1818056;79;21493;-47
2023/01/26 01:52:26;;;;;;;27.80;11.97;;;;;;;-5.90;68.77;102380.34;1817905;79;21110;-44
2023/01/26 01:55:00;;;;;;;46.42;16.23;;;;;;;-5.93;68.83;102371.59;1817928;79;21042;-47
2023/01/26 01:57:39;;;;;;;18.40;9.38;;;;;;;-5.95;68.83;102376.63;1817727;78;21584;-48
2023/01/26 02:00:04;;;;;;;11.68;6.92;;;;;;;-5.95;68.99;102368.94;1817298;78;21094;-47
2023/01/26 02:02:36;;;;;;;40.03;15.10;;;;;;;-5.93;68.91;102369.03;1816546;79;21094;-46
2023/01/26 02:05:20;;;;;;;7.70;4.72;;;;;;;-5.92;68.74;102364.36;1818103;79;21153;-47
2023/01/26 02:07:50;;;;;;;22.85;11.18;;;;;;;-5.94;68.93;102371.97;1818379;77;21098;-46
2023/01/26 02:10:20;;;;;;;38.70;15.53;;;;;;;-5.90;68.81;102368.80;1818021;79;21579;-48
2023/01/26 02:12:52;;;;;;;36.42;15.65;;;;;;;-5.89;68.77;102370.55;1818297;79;21191;-46
2023/01/26 02:15:21;;;;;;;30.62;13.22;;;;;;;-5.92;69.06;102366.55;1818001;79;21059;-46
2023/01/26 02:17:52;;;;;;;24.57;8.13;;;;;;;-5.93;69.15;102364.77;1818091;79;21185;-45
2023/01/26 02:20:27;;;;;;;41.70;13.72;;;;;;;-5.91;69.00;102362.30;1844664;78;21054;-47
2023/01/26 02:23:11;;;;;;;27.45;11.18;;;;;;;-5.89;68.90;102370.95;1848701;77;21113;-47
2023/01/26 02:25:56;;;;;;;34.95;12.58;;;;;;;-5.87;68.84;102377.92;1847579;78;21070;-47
2023/01/26 02:28:27;;;;;;;42.75;18.17;;;;;;;-5.86;68.76;102375.85;1848601;78;21117;-43
2023/01/26 02:30:57;;;;;;;49.10;16.15;;;;;;;-5.88;68.84;102371.04;1842466;78;21580;-45
2023/01/26 02:33:28;;;;;;;53.40;17.37;;;;;;;-5.90;68.91;102380.34;1848701;77;21094;-48
2023/01/26 02:35:59;;;;;;;24.87;8.83;;;;;;;-5.92;69.12;102384.51;1848671;75;21385;-52
2023/01/26 02:38:31;;;;;;;25.40;10.08;;;;;;;-5.96;69.23;102386.43;1848701;78;21524;-50
2023/01/26 02:41:06;;;;;;;38.35;16.95;;;;;;;-6.00;69.29;102390.91;1846384;78;21079;-49
2023/01/26 02:43:36;;;;;;;48.65;18.52;;;;;;;-6.03;69.27;102389.45;1848839;78;21051;-51
2023/01/26 02:46:05;;;;;;;18.23;9.93;;;;;;;-6.05;69.41;102391.05;1848606;78;21502;-47
2023/01/26 02:51:23;;;;;;;25.10;10.48;;;;;;;-6.10;69.27;102391.22;1846437;78;21063;-46
2023/01/26 02:53:51;;;;;;;28.27;12.60;;;;;;;-6.15;69.26;102387.52;1848665;77;21148;-46
2023/01/26 02:56:20;;;;;;;20.92;9.45;;;;;;;-6.19;69.30;102389.02;1848575;78;21509;-49
2023/01/26 02:58:49;;;;;;;24.70;8.28;;;;;;;-6.16;69.30;102381.52;1848389;78;21062;-49
2023/01/26 03:01:17;;;;;;;61.23;19.05;;;;;;;-6.11;69.41;102386.88;1817909;79;21094;-47
2023/01/26 03:03:48;;;;;;;33.15;12.55;;;;;;;-6.06;69.50;102394.44;1818107;78;21541;-47
2023/01/26 03:06:17;;;;;;;37.75;13.53;;;;;;;-6.09;69.49;102396.41;1818058;79;21038;-50
2023/01/26 03:08:45;;;;;;;11.78;6.60;;;;;;;-6.10;69.65;102389.94;1818069;78;21062;-44
2023/01/26 03:11:14;;;;;;;27.77;10.23;;;;;;;-6.07;69.62;102390.09;1820080;78;21071;-45
2023/01/26 03:13:43;;;;;;;59.50;21.05;;;;;;;-6.02;69.59;102389.95;1817856;79;21090;-45
2023/01/26 03:16:12;;;;;;;53.80;20.65;;;;;;;-5.98;69.62;102384.19;1817969;79;21132;-43
2023/01/26 03:29:50;;;;;;;37.63;14.35;;;;;;;-6.03;69.83;102390.73;1846327;77;21556;-45
2023/01/26 03:32:19;;;;;;;30.55;11.65;;;;;;;-6.04;69.61;102387.70;1848646;78;21149;-48
2023/01/26 03:34:48;;;;;;;12.15;7.22;;;;;;;-6.03;69.52;102385.61;1848567;78;21165;-47
2023/01/26 03:37:22;;;;;;;11.88;4.45;;;;;;;-6.01;69.41;102391.73;1848545;78;21549;-47
2023/01/26 03:56:33;;;;;;;14.15;6.70;;;;;;;-5.94;70.51;102392.48;1848545;78;21026;-45
2023/01/26 03:59:07;;;;;;;31.57;14.68;;;;;;;-5.93;70.29;102387.86;1845430;77;21085;-45
2023/01/26 04:01:38;;;;;;;34.30;12.93;;;;;;;-5.93;70.29;102387.86;1849595;77;21050;-45
2023/01/26 04:09:44;;;;;;;24.57;11.38;;;;;;;-5.85;70.12;102395.55;1846532;77;21180;-47
2023/01/26 04:12:14;;;;;;;25.88;9.33;;;;;;;-5.87;70.42;102402.29;1848529;78;21226;-45
2023/01/26 04:23:11;;;;;;;24.85;11.45;;;;;;;-5.95;70.55;102403.56;1848736;78;21498;-44
2023/01/26 04:25:40;;;;;;;18.30;9.63;;;;;;;-5.95;70.46;102401.00;1847848;77;21142;-49
2023/01/26 04:28:10;;;;;;;28.55;11.93;;;;;;;-5.97;70.40;102403.92;1848683;78;21658;-47
2023/01/26 04:30:39;;;;;;;4.85;3.98;;;;;;;-5.95;70.33;102403.56;1849357;77;21591;-50
2023/01/26 04:33:08;;;;;;;23.35;6.72;;;;;;;-5.95;70.19;102399.72;1851213;77;21203;-46
2023/01/26 04:35:37;;;;;;;26.15;10.38;;;;;;;-5.98;70.37;102394.44;1852125;77;21500;-49
2023/01/26 04:38:06;;;;;;;25.85;11.33;;;;;;;-5.94;70.07;102404.03;1852309;77;21497;-47
2023/01/26 04:40:34;;;;;;;58.75;18.07;;;;;;;-5.94;70.10;102403.16;1852138;77;21160;-47
2023/01/26 04:43:03;;;;;;;22.48;8.50;;;;;;;-5.97;70.29;102405.20;1849846;77;21182;-52
2023/01/26 04:45:32;;;;;;;25.50;9.03;;;;;;;-6.03;70.54;102400.99;1852022;77;21058;-48
2023/01/26 04:48:01;;;;;;;11.15;6.20;;;;;;;-6.09;70.76;102416.05;1852169;77;21086;-50
2023/01/26 04:50:30;;;;;;;22.00;9.33;;;;;;;-6.14;70.87;102408.50;1850892;76;21169;-50
2023/01/26 04:52:58;;;;;;;23.52;7.45;;;;;;;-6.11;70.71;102399.70;1841834;77;21181;-50
2023/01/26 04:55:27;;;;;;;31.10;9.63;;;;;;;-6.11;70.81;102401.86;1821407;79;21064;-46
2023/01/26 04:57:57;;;;;;;15.15;7.83;;;;;;;-6.08;70.78;102408.86;1821325;79;21064;-45
2023/01/26 05:00:25;;;;;;;22.75;10.55;;;;;;;-6.05;70.67;102411.20;1821481;79;21060;-50
2023/01/26 05:02:55;;;;;;;32.73;11.18;;;;;;;-6.01;70.52;102408.41;1848808;77;21156;-50
2023/01/26 05:05:23;;;;;;;28.42;11.33;;;;;;;-5.98;70.41;102413.68;1829051;77;21096;-47
2023/01/26 05:07:53;;;;;;;23.57;7.28;;;;;;;-5.92;70.35;102411.44;1835556;77;21094;-44
2023/01/26 05:10:22;;;;;;;21.05;7.45;;;;;;;-5.88;70.40;102404.39;1821322;79;21534;-53
2023/01/26 05:12:56;;;;;;;56.05;18.05;;;;;;;-5.76;70.26;102413.55;1831649;77;21119;-52
2023/01/26 05:15:32;;;;;;;38.63;13.65;;;;;;;-5.76;70.26;102413.55;1852140;77;21077;-52
2023/01/26 05:18:02;;;;;;;32.80;10.68;;;;;;;-5.71;70.57;102413.41;1846816;77;21085;-54
2023/01/26 05:20:38;;;;;;;7.45;3.37;;;;;;;-5.66;70.67;102412.86;1821022;79;21130;-53
2023/01/26 05:23:18;;;;;;;26.70;10.55;;;;;;;-5.57;70.68;102421.46;1821506;78;21114;-55
2023/01/26 05:26:05;;;;;;;33.35;10.78;;;;;;;-5.49;70.73;102419.30;1821342;79;21549;-58
2023/01/26 05:28:36;;;;;;;36.60;11.70;;;;;;;-5.36;70.62;102425.97;1821746;77;21572;-54
2023/01/26 05:31:05;;;;;;;37.65;12.20;;;;;;;-5.25;70.57;102424.84;1816619;78;21158;-56
2023/01/26 05:33:34;;;;;;;31.80;12.05;;;;;;;-5.07;70.46;102423.23;1835542;77;21149;-55
2023/01/26 05:36:07;;;;;;;36.38;12.05;;;;;;;-4.86;70.52;102423.45;1850186;77;21060;-52
2023/01/26 05:38:35;;;;;;;34.05;10.78;;;;;;;-4.49;70.61;102424.42;1822392;78;21056;-55
2023/01/26 05:41:06;;;;;;;29.02;11.78;;;;;;;-4.49;70.61;102424.42;1828719;77;21034;-51
2023/01/26 05:43:36;;;;;;;30.35;9.80;;;;;;;-4.19;70.52;102428.02;1833016;76;21125;-53
2023/01/26 05:46:13;;;;;;;41.88;12.43;;;;;;;-3.81;70.37;102426.39;1826255;76;21686;-47
2023/01/26 05:48:43;;;;;;;40.48;12.30;;;;;;;-3.34;69.98;102431.54;1892547;75;21160;-57
2023/01/26 05:51:12;;;;;;;55.78;14.58;;;;;;;-2.98;69.72;102428.84;1878280;76;21034;-52
2023/01/26 05:53:40;;;;;;;30.15;10.85;;;;;;;-2.62;69.30;102435.09;1866205;76;21110;-51
2023/01/26 05:56:11;;;;;;;32.85;11.38;;;;;;;-2.33;68.69;102438.47;1840122;76;21124;-53
2023/01/26 05:58:41;;;;;;;31.62;10.82;;;;;;;-2.11;68.07;102444.52;1860120;77;21156;-53
2023/01/26 06:01:11;;;;;;;29.82;9.65;;;;;;;-1.89;67.49;102446.67;1860901;77;21116;-53
2023/01/26 06:03:43;;;;;;;50.58;16.95;;;;;;;-1.62;66.98;102451.63;1864644;75;21144;-54
2023/01/26 06:06:12;;;;;;;43.95;14.13;;;;;;;-1.44;65.84;102447.97;1871780;76;21101;-51
2023/01/26 06:08:45;;;;;;;36.77;15.08;;;;;;;-1.29;65.51;102438.22;1825380;78;21129;-57
2023/01/26 06:11:27;;;;;;;45.17;15.65;;;;;;;-0.79;65.52;102443.45;1761851;78;21055;-55
2023/01/26 06:14:03;;;;;;;39.63;13.48;;;;;;;-0.27;65.39;102440.03;1825486;78;21125;-57
2023/01/26 06:16:32;;;;;;;21.87;11.85;;;;;;;0.14;64.87;102433.12;1826333;78;21061;-53
2023/01/26 06:19:01;;;;;;;35.70;13.85;;;;;;;0.56;64.57;102439.14;1826355;78;21122;-57
2023/01/26 06:21:31;;;;;;;41.48;13.43;;;;;;;0.93;64.27;102437.18;1826291;78;21036;-53
2023/01/26 06:23:59;;;;;;;30.20;12.75;;;;;;;0.83;63.89;102440.77;1826518;78;21506;-53
2023/01/26 06:26:29;;;;;;;47.08;16.23;;;;;;;0.50;63.85;102446.72;1826439;78;21036;-54
2023/01/26 06:28:59;;;;;;;39.53;13.55;;;;;;;0.17;63.95;102442.30;1826370;78;21052;-55
2023/01/26 06:31:29;;;;;;;63.00;17.62;;;;;;;-0.05;64.26;102445.49;1825744;78;21059;-54
2023/01/26 06:33:59;;;;;;;46.70;17.57;;;;;;;-0.20;64.59;102444.59;1817455;78;21090;-56
2023/01/26 06:36:28;;;;;;;33.48;13.25;;;;;;;-0.27;64.85;102445.63;1818115;79;21032;-57
2023/01/26 06:38:58;;;;;;;39.15;14.30;;;;;;;-0.36;65.00;102442.73;1818020;79;21065;-51
2023/01/26 06:41:27;;;;;;;46.53;15.80;;;;;;;-0.44;65.12;102445.95;1840491;78;21121;-53
2023/01/26 06:43:56;;;;;;;46.58;16.97;;;;;;;-0.47;65.19;102452.30;1848619;77;21074;-53
2023/01/26 06:46:25;;;;;;;57.65;17.30;;;;;;;-0.50;65.30;102445.75;1848496;78;21137;-52
2023/01/26 06:48:55;;;;;;;50.70;16.05;;;;;;;-0.51;65.56;102447.86;1848587;77;21623;-52
2023/01/26 06:51:42;;;;;;;55.08;16.15;;;;;;;-0.45;65.63;102449.77;1819857;78;21070;-53
2023/01/26 06:54:12;;;;;;;49.48;15.85;;;;;;;-0.42;65.70;102446.00;1817991;79;21098;-57
2023/01/26 06:56:43;;;;;;;53.85;16.17;;;;;;;-0.34;65.62;102451.44;1811355;79;21090;-59
2023/01/26 06:59:31;;;;;;;55.75;17.32;;;;;;;-0.30;65.55;102448.11;1816054;78;21534;-51
2023/01/26 07:02:21;;;;;;;58.20;21.90;;;;;;;-0.29;65.58;102451.17;1817826;79;21082;-50
2023/01/26 07:04:50;;;;;;;90.35;29.35;;;;;;;-0.24;65.90;102445.32;1817425;79;21580;-49
2023/01/26 07:07:19;;;;;;;79.82;27.20;;;;;;;-0.13;65.83;102446.97;1817328;79;21031;-51
2023/01/26 07:09:48;;;;;;;62.38;18.75;;;;;;;-0.05;65.84;102445.91;1817419;79;21058;-50
2023/01/26 07:12:16;;;;;;;66.10;20.82;;;;;;;-0.06;66.22;102448.90;1846765;78;21078;-55
2023/01/26 07:14:45;;;;;;;37.33;13.50;;;;;;;0.01;66.17;102455.59;1848666;77;21438;-59
2023/01/26 07:17:14;;;;;;;80.87;22.65;;;;;;;0.06;66.04;102446.27;1842096;77;21055;-59
2023/01/26 07:19:43;;;;;;;61.25;21.20;;;;;;;0.10;65.93;102450.70;1819709;78;21141;-59
2023/01/26 07:22:13;;;;;;;51.18;18.35;;;;;;;0.19;65.94;102441.92;1817994;79;21109;-58
2023/01/26 07:24:41;;;;;;;61.65;23.90;;;;;;;0.29;65.88;102442.65;1817992;78;21145;-56
2023/01/26 07:27:10;;;;;;;55.17;19.42;;;;;;;0.37;65.83;102443.78;1818909;78;21134;-55
2023/01/26 07:29:38;;;;;;;72.15;20.32;;;;;;;0.41;65.77;102447.34;1848566;78;21144;-54
2023/01/26 07:32:07;;;;;;;78.17;20.37;;;;;;;0.37;65.78;102441.19;1848614;78;21022;-56
2023/01/26 07:34:35;;;;;;;86.70;21.93;;;;;;;0.35;65.99;102441.56;1856857;77;21222;-55
2023/01/26 07:37:04;;;;;;;60.45;18.60;;;;;;;0.33;66.19;102445.82;1856889;77;21159;-56
2023/01/26 07:39:33;;;;;;;45.43;16.30;;;;;;;0.32;66.35;102444.05;1852409;77;21615;-54
2023/01/26 07:42:01;;;;;;;58.45;19.67;;;;;;;0.29;66.41;102443.08;1856885;77;21022;-57
2023/01/26 07:44:35;;;;;;;49.10;17.20;;;;;;;0.27;66.62;102446.91;1855765;77;21151;-48
2023/01/26 07:47:03;;;;;;;42.30;14.23;;;;;;;0.37;66.91;102438.59;1856817;77;21120;-52
2023/01/26 07:49:32;;;;;;;59.73;12.75;;;;;;;0.56;67.11;102433.96;1856213;77;21187;-52
2023/01/26 07:52:01;;;;;;;73.52;13.18;;;;;;;0.67;67.02;102431.69;1858225;77;21213;-56
2023/01/26 07:54:29;;;;;;;51.77;14.03;;;;;;;0.74;67.13;102433.20;1858118;77;21207;-59
2023/01/26 07:56:58;;;;;;;43.15;12.78;;;;;;;0.79;67.12;102432.44;1858087;77;21144;-58
2023/01/26 07:59:27;;;;;;;23.90;8.40;;;;;;;0.89;67.01;102426.27;1856288;77;21066;-57
2023/01/26 08:01:56;;;;;;;83.65;17.45;;;;;;;0.99;66.95;102427.39;1856980;77;21094;-56
2023/01/26 08:04:24;;;;;;;54.75;12.55;;;;;;;1.06;66.80;102424.13;1856877;77;21056;-55
2023/01/26 08:06:53;;;;;;;91.32;15.43;;;;;;;1.08;66.82;102417.27;1856891;77;21058;-55
2023/01/26 08:09:22;;;;;;;56.33;17.10;;;;;;;1.11;66.77;102419.95;1855832;77;21423;-54
2023/01/26 08:11:50;;;;;;;61.28;16.75;;;;;;;1.02;67.05;102433.97;1856852;77;21461;-54
2023/01/26 08:14:19;;;;;;;64.87;20.82;;;;;;;0.94;67.17;102430.27;1856906;77;21083;-55
2023/01/26 08:16:47;;;;;;;71.37;20.75;;;;;;;0.94;67.14;102430.27;1856951;77;21057;-48
2023/01/26 08:19:16;;;;;;;54.65;18.10;;;;;;;0.90;67.20;102427.14;1856849;77;21172;-53
2023/01/26 08:21:45;;;;;;;53.52;16.90;;;;;;;0.88;67.14;102423.63;1855454;77;21113;-53
2023/01/26 08:24:14;;;;;;;41.75;14.78;;;;;;;0.90;67.14;102427.14;1856858;77;21107;-52
2023/01/26 08:26:42;;;;;;;73.07;17.40;;;;;;;0.99;67.09;102418.31;1856811;77;21560;-54
2023/01/26 08:29:11;;;;;;;80.15;18.82;;;;;;;1.05;67.07;102424.98;1856878;77;21091;-55
2023/01/26 08:31:39;;;;;;;70.37;18.20;;;;;;;1.11;67.00;102416.06;1860085;77;21026;-54
2023/01/26 08:34:08;;;;;;;53.25;15.32;;;;;;;1.17;67.08;102413.17;1856169;77;21603;-55
2023/01/26 08:36:38;;;;;;;57.83;17.42;;;;;;;1.22;67.08;102412.85;1849234;77;21117;-55
2023/01/26 08:39:07;;;;;;;63.38;17.37;;;;;;;1.28;67.05;102409.14;1848997;77;21043;-55
2023/01/26 08:41:35;;;;;;;58.35;15.40;;;;;;;1.34;67.04;102414.48;1834747;77;21587;-55
2023/01/26 08:44:04;;;;;;;65.42;18.25;;;;;;;1.48;67.07;102409.23;1817741;79;21059;-55
2023/01/26 08:46:33;;;;;;;88.22;25.82;;;;;;;1.60;67.08;102407.34;1817770;79;21066;-60
2023/01/26 08:49:02;;;;;;;70.62;21.00;;;;;;;1.56;67.04;102405.95;1817649;79;21094;-60
2023/01/26 08:51:31;;;;;;;65.90;21.12;;;;;;;1.40;67.42;102406.84;1827095;77;21070;-60
2023/01/26 08:54:00;;;;;;;76.28;22.05;;;;;;;1.46;67.60;102396.63;1861071;77;21077;-60
2023/01/26 08:56:28;;;;;;;69.82;21.52;;;;;;;1.60;67.84;102396.09;1861060;77;21030;-60
2023/01/26 08:58:57;;;;;;;93.47;24.25;;;;;;;1.85;67.74;102390.65;1860013;77;21054;-61
2023/01/26 09:01:26;;;;;;;64.95;18.20;;;;;;;1.98;67.56;102382.72;1848851;77;21049;-60
2023/01/26 09:03:55;;;;;;;68.22;21.37;;;;;;;2.01;67.43;102384.09;1848757;77;21154;-61
2023/01/26 09:06:24;;;;;;;75.60;19.85;;;;;;;2.06;67.40;102381.59;1848749;77;21633;-59
2023/01/26 09:08:52;;;;;;;70.83;21.93;;;;;;;2.06;67.29;102386.78;1848936;77;21186;-53
2023/01/26 09:11:21;;;;;;;67.80;20.75;;;;;;;2.14;67.20;102373.56;1855444;77;21062;-54
2023/01/26 09:13:55;;;;;;;65.75;21.15;;;;;;;2.19;67.10;102373.20;1861018;77;21062;-52
2023/01/26 09:16:24;;;;;;;62.13;20.68;;;;;;;2.25;67.18;102372.06;1861206;77;21190;-57
2023/01/26 09:18:53;;;;;;;72.87;20.70;;;;;;;2.38;67.26;102365.80;1861010;77;21026;-51
2023/01/26 09:21:27;;;;;;;65.42;20.60;;;;;;;2.49;67.25;102367.80;1852291;77;21024;-53
2023/01/26 09:23:52;;;;;;;66.92;20.48;;;;;;;2.55;67.39;102363.58;1847878;77;21139;-54
2023/01/26 09:26:21;;;;;;;57.93;17.57;;;;;;;2.57;67.13;102359.28;1848843;77;21052;-53
2023/01/26 09:28:53;;;;;;;61.00;17.98;;;;;;;2.52;66.96;102364.38;1848846;77;21051;-52
2023/01/26 09:31:21;;;;;;;61.77;21.30;;;;;;;2.51;66.84;102354.83;1848050;77;21519;-50
2023/01/26 09:33:51;;;;;;;58.78;20.32;;;;;;;2.51;66.79;102356.13;1848823;77;21060;-56
2023/01/26 09:36:20;;;;;;;61.55;18.40;;;;;;;2.51;66.68;102357.44;1848622;78;21128;-56
2023/01/26 09:38:49;;;;;;;48.95;18.10;;;;;;;2.48;66.58;102344.36;1848651;78;21541;-53
2023/01/26 09:41:21;;;;;;;53.78;17.30;;;;;;;2.33;66.53;102350.12;1849312;77;21513;-49
2023/01/26 09:43:58;;;;;;;61.13;18.85;;;;;;;2.28;66.76;102340.91;1857454;77;21742;-53
2023/01/26 09:46:33;;;;;;;63.83;18.67;;;;;;;2.42;66.99;102342.95;1851243;77;21055;-53
2023/01/26 09:49:19;;;;;;;57.98;17.50;;;;;;;2.46;67.32;102347.36;1835129;77;21055;-52
2023/01/26 09:52:05;;;;;;;37.40;9.35;;;;;;;2.66;67.37;102339.52;1846293;78;21055;-53
2023/01/26 09:54:37;;;;;;;72.58;20.92;;;;;;;2.95;67.11;102339.60;1847165;77;21094;-55
2023/01/26 09:57:20;;;;;;;76.05;21.12;;;;;;;3.12;66.80;102334.69;1848543;78;21055;-53
2023/01/26 09:59:52;;;;;;;68.65;21.52;;;;;;;3.33;67.02;102333.77;1837104;78;21059;-54
2023/01/26 10:02:50;;;;;;;68.00;20.97;;;;;;;3.47;66.81;102325.75;1817861;78;21086;-52
2023/01/26 10:05:28;;;;;;;66.00;20.75;;;;;;;3.38;66.44;102324.30;1817935;79;21062;-53
2023/01/26 10:07:59;;;;;;;70.65;23.00;;;;;;;3.32;66.35;102324.63;1816459;79;21568;-56
2023/01/26 10:10:36;;;;;;;57.55;19.37;;;;;;;3.54;66.45;102319.33;1838008;77;21078;-52
2023/01/26 10:13:05;;;;;;;53.02;17.35;;;;;;;3.68;66.33;102328.23;1860915;77;21046;-50
2023/01/26 10:15:39;;;;;;;60.52;19.73;;;;;;;3.72;66.03;102327.42;1861166;77;21105;-52
2023/01/26 10:18:11;;;;;;;72.27;24.10;;;;;;;3.59;65.89;102321.58;1861067;77;21043;-50
2023/01/26 10:20:51;;;;;;;71.95;24.35;;;;;;;3.58;65.97;102323.32;1843570;77;21058;-52
2023/01/26 10:23:23;;;;;;;57.55;20.50;;;;;;;3.58;65.91;102321.12;1817700;77;21055;-51
2023/01/26 10:25:53;;;;;;;68.15;20.62;;;;;;;3.51;65.98;102321.91;1819343;78;21133;-53
2023/01/26 10:28:34;;;;;;;54.42;19.12;;;;;;;3.41;66.07;102315.66;1843845;77;21015;-50
2023/01/26 10:31:08;;;;;;;61.28;21.33;;;;;;;3.36;66.16;102309.09;1848607;77;21441;-53
2023/01/26 10:33:38;;;;;;;65.05;20.48;;;;;;;3.29;66.20;102309.84;1848237;78;21575;-52
2023/01/26 10:36:08;;;;;;;58.68;21.45;;;;;;;3.23;66.26;102305.84;1848329;78;21563;-53
2023/01/26 10:38:39;;;;;;;57.67;19.55;;;;;;;3.23;66.34;102298.03;1848613;78;21082;-51
2023/01/26 10:41:17;;;;;;;62.17;20.92;;;;;;;3.22;66.44;102293.23;1848563;78;21545;-51
2023/01/26 10:43:57;;;;;;;60.45;19.65;;;;;;;3.22;66.47;102294.53;1848713;77;21138;-53
2023/01/26 10:46:34;;;;;;;59.58;18.85;;;;;;;3.18;66.46;102289.27;1833839;78;21670;-50
2023/01/26 10:49:13;;;;;;;47.60;17.80;;;;;;;3.18;66.52;102290.13;1820060;78;21062;-51
2023/01/26 10:51:44;;;;;;;62.20;20.68;;;;;;;3.18;66.55;102289.27;1818033;79;21066;-52
2023/01/26 10:54:25;;;;;;;54.08;17.82;;;;;;;3.20;66.53;102287.56;1818015;79;21124;-54
2023/01/26 10:56:59;;;;;;;54.90;19.35;;;;;;;3.19;66.47;102297.11;1838473;77;21121;-60
2023/01/26 10:59:37;;;;;;;42.38;16.55;;;;;;;3.11;66.53;102299.12;1861087;77;21547;-60
2023/01/26 11:02:18;;;;;;;44.70;17.40;;;;;;;3.14;66.67;102290.08;1861160;77;21055;-59
2023/01/26 11:05:05;;;;;;;64.55;18.75;;;;;;;3.08;66.67;102288.21;1861104;77;21133;-53
2023/01/26 11:07:40;;;;;;;55.12;18.15;;;;;;;3.03;66.70;102281.65;1850513;77;21123;-54
2023/01/26 11:10:21;;;;;;;65.67;20.00;;;;;;;3.05;66.81;102292.09;1847511;77;21510;-54
2023/01/26 11:12:50;;;;;;;26.87;10.93;;;;;;;3.13;66.77;102292.21;1848963;77;21028;-55
2023/01/26 11:15:22;;;;;;;57.50;18.52;;;;;;;3.25;66.88;102291.13;1848843;77;21118;-57
2023/01/26 11:18:00;;;;;;;59.38;18.17;;;;;;;3.38;66.57;102289.16;1851039;77;21508;-55
2023/01/26 11:20:48;;;;;;;53.92;17.95;;;;;;;3.58;66.36;102282.05;1861104;77;21038;-54
2023/01/26 11:23:42;;;;;;;64.35;18.67;;;;;;;4.07;65.76;102281.42;1861241;77;21141;-53
2023/01/26 11:26:23;;;;;;;46.90;16.27;;;;;;;4.31;65.39;102276.92;1859995;77;21517;-54
2023/01/26 11:29:13;;;;;;;63.92;22.35;;;;;;;4.53;65.12;102271.52;1850164;77;21548;-53
2023/01/26 11:31:47;;;;;;;64.47;20.65;;;;;;;4.64;64.49;102263.38;1839525;77;21114;-53
2023/01/26 11:34:30;;;;;;;61.13;18.20;;;;;;;5.78;62.36;102274.70;1816999;79;21181;-55
2023/01/26 11:37:05;;;;;;;60.73;21.25;;;;;;;6.42;60.92;102272.36;1820890;78;21180;-47
2023/01/26 11:39:36;;;;;;;56.58;19.00;;;;;;;6.93;59.87;102263.75;1847282;77;21489;-60
2023/01/26 11:42:11;;;;;;;52.85;18.82;;;;;;;7.22;59.20;102269.85;1855096;76;21178;-60
2023/01/26 11:44:42;;;;;;;68.37;22.50;;;;;;;7.35;59.03;102268.95;1840253;77;21040;-51
2023/01/26 11:47:34;;;;;;;60.35;18.98;;;;;;;7.32;59.14;102270.26;1826266;78;21056;-51
2023/01/26 11:50:23;;;;;;;67.75;21.00;;;;;;;7.39;58.80;102275.07;1826311;78;21064;-53
2023/01/26 11:53:07;;;;;;;60.90;21.25;;;;;;;7.14;58.99;102277.72;1825343;78;21141;-54
2023/01/26 11:56:06;;;;;;;55.95;18.42;;;;;;;6.60;59.78;102282.02;1847539;76;21596;-51
2023/01/26 11:58:49;;;;;;;50.70;16.42;;;;;;;6.50;60.14;102278.06;1796454;79;21056;-52
2023/01/26 12:01:29;;;;;;;63.73;19.30;;;;;;;6.33;60.21;102286.31;1796484;80;21584;-51
2023/01/26 12:03:58;;;;;;;50.95;16.90;;;;;;;5.98;60.80;102287.05;1796517;80;21538;-51
2023/01/26 12:06:42;;;;;;;69.80;21.30;;;;;;;5.68;61.21;102285.08;1810648;79;21099;-53
2023/01/26 12:09:19;;;;;;;67.08;21.57;;;;;;;5.34;61.71;102285.73;1824832;77;21056;-53
2023/01/26 12:12:11;;;;;;;84.58;26.33;;;;;;;5.05;62.21;102284.63;1824832;78;21189;-50
2023/01/26 12:14:45;;;;;;;73.52;20.77;;;;;;;4.91;62.47;102283.22;1832726;77;21490;-50
2023/01/26 12:17:20;;;;;;;78.17;20.02;;;;;;;5.01;62.31;102279.38;1810340;79;21054;-50
2023/01/26 12:20:03;;;;;;;67.58;22.62;;;;;;;4.90;62.32;102290.16;1824726;77;21018;-54
2023/01/26 12:22:35;;;;;;;84.35;25.00;;;;;;;4.76;62.64;102282.64;1822386;77;21524;-54
2023/01/26 12:25:21;;;;;;;77.50;23.60;;;;;;;4.66;62.94;102287.31;1822421;79;21050;-53